createdAt,value
2023-02-01T00:00:25.018Z,99306.06
2023-02-01T00:02:51.520Z,99304.44
2023-02-01T00:05:18.181Z,99302.81
2023-02-01T00:07:48.191Z,99300.38
2023-02-01T00:10:14.789Z,99290.44
2023-02-01T00:12:41.294Z,99296.25
2023-02-01T00:15:08.309Z,99283.91
2023-02-01T00:17:34.851Z,99277.97
2023-02-01T00:20:01.257Z,99282.97
2023-02-01T00:22:27.669Z,99276.44
2023-02-01T00:24:54.116Z,99266.41
2023-02-01T00:27:22.197Z,99280.38
2023-02-01T00:29:49.020Z,99276.66
2023-02-01T00:32:15.815Z,99281.00
2023-02-01T00:34:42.477Z,99275.63
2023-02-01T00:37:09.032Z,99269.22
2023-02-01T00:39:35.739Z,99267.59
2023-02-01T00:42:03.153Z,99265.94
2023-02-01T00:44:34.194Z,99265.94
2023-02-01T00:47:01.308Z,99263.47
2023-02-01T00:49:28.843Z,99263.72
2023-02-01T00:51:55.565Z,99262.31
2023-02-01T00:54:22.247Z,99253.22
2023-02-01T00:56:48.806Z,99252.50
2023-02-01T00:59:15.360Z,99249.00
2023-02-01T01:01:41.951Z,99246.13
2023-02-01T01:04:08.472Z,99241.78
2023-02-01T01:06:35.548Z,99217.31
2023-02-01T01:09:05.308Z,99198.16
2023-02-01T01:11:34.265Z,99197.03
2023-02-01T01:14:01.660Z,99209.81
2023-02-01T01:16:30.071Z,99208.91
2023-02-01T01:18:57.287Z,99210.78
2023-02-01T01:21:23.945Z,99210.78
2023-02-01T01:23:50.544Z,99204.94
2023-02-01T01:26:19.974Z,99212.28
2023-02-01T01:28:46.651Z,99220.91
2023-02-01T01:31:15.864Z,99225.81
2023-02-01T01:33:42.431Z,99239.56
2023-02-01T01:36:13.353Z,99238.53
2023-02-01T01:38:41.339Z,99242.84
2023-02-01T01:41:09.001Z,99246.13
2023-02-01T01:43:47.909Z,99242.38
2023-02-01T01:46:19.720Z,99247.75
2023-02-01T01:48:48.928Z,99235.97
2023-02-01T01:51:21.300Z,99240.28
2023-02-01T01:53:59.436Z,99241.91
2023-02-01T01:56:28.622Z,99236.53
2023-02-01T01:58:55.860Z,99224.75
2023-02-01T02:01:22.349Z,99239.81
2023-02-01T02:03:49.385Z,99233.97
2023-02-01T02:06:22.118Z,99242.84
2023-02-01T02:08:48.648Z,99231.88
2023-02-01T02:11:17.842Z,99229.78
2023-02-01T02:13:49.396Z,99226.06
2023-02-01T02:16:34.332Z,99222.31
2023-02-01T02:19:25.590Z,99225.25
2023-02-01T02:22:04.412Z,99223.38
2023-02-01T02:24:50.998Z,99225.25
2023-02-01T02:27:38.840Z,99234.94
2023-02-01T02:30:26.847Z,99227.69
2023-02-01T02:33:37.781Z,99224.75
2023-02-01T02:36:31.301Z,99223.94
2023-02-01T02:39:02.188Z,99226.06
2023-02-01T02:41:58.260Z,99216.34
2023-02-01T02:44:55.287Z,99212.41
2023-02-01T02:47:33.570Z,99211.59
2023-02-01T02:50:25.463Z,99219.41
2023-02-01T02:53:23.562Z,99217.78
2023-02-01T02:55:52.225Z,99214.03
2023-02-01T02:58:39.231Z,99205.97
2023-02-01T03:01:24.727Z,99197.69
2023-02-01T03:04:09.587Z,99199.56
2023-02-01T03:06:36.030Z,99207.38
2023-02-01T03:09:09.577Z,99209.03
2023-02-01T03:11:55.544Z,99201.78
2023-02-01T03:14:27.567Z,99200.50
2023-02-01T03:17:05.886Z,99201.56
2023-02-01T03:19:40.133Z,99203.19
2023-02-01T03:22:13.760Z,99192.44
2023-02-01T03:24:45.447Z,99168.28
2023-02-01T03:27:25.509Z,99165.63
2023-02-01T03:30:18.952Z,99155.94
2023-02-01T03:33:00.021Z,99152.69
2023-02-01T03:35:48.350Z,99155.56
2023-02-01T03:38:24.571Z,99135.97
2023-02-01T03:40:59.924Z,99143.78
2023-02-01T03:43:30.344Z,99140.91
2023-02-01T03:46:01.199Z,99137.97
2023-02-01T03:48:30.302Z,99123.75
2023-02-01T03:51:01.764Z,99122.69
2023-02-01T03:53:30.036Z,99142.03
2023-02-01T03:55:57.756Z,99134.59
2023-02-01T03:58:24.772Z,99147.75
2023-02-01T04:00:57.779Z,99145.88
2023-02-01T04:03:25.819Z,99149.13
2023-02-01T04:05:53.360Z,99151.81
2023-02-01T04:08:24.161Z,99152.63
2023-02-01T04:10:50.693Z,99146.47
2023-02-01T04:13:17.059Z,99146.47
2023-02-01T04:15:44.462Z,99142.72
2023-02-01T04:18:10.932Z,99153.44
2023-02-01T04:20:37.404Z,99159.88
2023-02-01T04:23:04.067Z,99150.19
2023-02-01T04:25:30.991Z,99141.09
2023-02-01T04:27:57.516Z,99135.16
2023-02-01T04:30:25.052Z,99127.56
2023-02-01T04:32:51.726Z,99140.75
2023-02-01T04:35:18.820Z,99132.94
2023-02-01T04:37:45.448Z,99130.25
2023-02-01T04:40:12.375Z,99132.94
2023-02-01T04:42:38.804Z,99131.28
2023-02-01T04:45:05.904Z,99126.19
2023-02-01T04:47:32.449Z,99137.16
2023-02-01T04:49:58.848Z,99139.59
2023-02-01T04:52:25.290Z,99138.78
2023-02-01T04:54:51.768Z,99136.66
2023-02-01T04:57:18.177Z,99130.50
2023-02-01T04:59:44.567Z,99127.00
2023-02-01T05:02:11.033Z,99106.56
2023-02-01T05:04:37.441Z,99127.00
2023-02-01T05:07:03.977Z,99123.16
2023-02-01T05:09:30.432Z,99124.44
2023-02-01T05:12:15.569Z,99127.38
2023-02-01T05:14:42.086Z,99121.50
2023-02-01T05:17:08.508Z,99137.16
2023-02-01T05:19:34.933Z,99130.50
2023-02-01T05:22:01.447Z,99131.66
2023-02-01T05:24:28.067Z,99131.41
2023-02-01T05:26:54.691Z,99137.34
2023-02-01T05:29:21.203Z,99141.44
2023-02-01T05:31:49.054Z,99138.75
2023-02-01T05:34:16.252Z,99137.69
2023-02-01T05:36:42.708Z,99143.63
2023-02-01T05:39:09.188Z,99145.03
2023-02-01T05:41:35.710Z,99135.13
2023-02-01T05:44:02.082Z,99151.00
2023-02-01T05:46:28.575Z,99149.94
2023-02-01T05:48:55.227Z,99159.38
2023-02-01T05:51:21.631Z,99145.94
2023-02-01T05:53:48.012Z,99154.81
2023-02-01T05:56:14.438Z,99150.50
2023-02-01T05:58:40.834Z,99154.81
2023-02-01T06:01:07.289Z,99162.88
2023-02-01T06:03:33.823Z,99163.09
2023-02-01T06:06:02.072Z,99162.88
2023-02-01T06:08:28.869Z,99147.25
2023-02-01T06:11:00.494Z,99154.50
2023-02-01T06:13:27.257Z,99142.94
2023-02-01T06:15:53.830Z,99147.50
2023-02-01T06:18:20.595Z,99159.50
2023-02-01T06:20:53.162Z,99164.06
2023-02-01T06:23:19.632Z,99166.97
2023-02-01T06:25:46.110Z,99170.72
2023-02-01T06:28:12.526Z,99165.34
2023-02-01T06:30:41.880Z,99160.81
2023-02-01T06:33:08.519Z,99174.47
2023-02-01T06:35:34.903Z,99170.72
2023-02-01T06:38:01.278Z,99162.09
2023-02-01T06:40:27.728Z,99154.25
2023-02-01T06:42:54.103Z,99158.81
2023-02-01T06:45:20.554Z,99164.19
2023-02-01T06:47:46.896Z,99163.97
2023-02-01T06:50:13.390Z,99154.88
2023-02-01T06:52:39.801Z,99163.25
2023-02-01T06:55:06.833Z,99164.88
2023-02-01T06:57:35.254Z,99172.47
2023-02-01T07:00:01.994Z,99174.34
2023-02-01T07:02:28.426Z,99175.72
2023-02-01T07:04:55.161Z,99181.66
2023-02-01T07:07:23.436Z,99175.84
2023-02-01T07:09:50.552Z,99183.63
2023-02-01T07:12:17.087Z,99195.19
2023-02-01T07:14:43.577Z,99209.44
2023-02-01T07:17:10.012Z,99207.31
2023-02-01T07:19:36.417Z,99201.72
2023-02-01T07:22:02.848Z,99204.50
2023-02-01T07:24:29.540Z,99213.16
2023-02-01T07:26:55.985Z,99202.41
2023-02-01T07:29:22.414Z,99209.41
2023-02-01T07:31:48.914Z,99212.53
2023-02-01T07:34:15.327Z,99217.19
2023-02-01T07:36:42.786Z,99217.75
2023-02-01T07:39:09.313Z,99213.56
2023-02-01T07:41:35.734Z,99214.69
2023-02-01T07:44:02.290Z,99210.25
2023-02-01T07:46:28.841Z,99216.28
2023-02-01T07:48:55.228Z,99212.66
2023-02-01T07:51:21.761Z,99212.91
2023-02-01T07:53:48.312Z,99210.22
2023-02-01T07:56:19.802Z,99214.16
2023-02-01T07:58:55.608Z,99206.47
2023-02-01T08:01:26.894Z,99212.31
2023-02-01T08:03:59.883Z,99217.34
2023-02-01T08:06:27.667Z,99225.66
2023-02-01T08:08:55.059Z,99217.09
2023-02-01T08:11:22.856Z,99210.38
2023-02-01T08:13:49.920Z,99199.50
2023-02-01T08:16:18.641Z,99209.03
2023-02-01T08:18:45.964Z,99211.34
2023-02-01T08:21:15.857Z,99217.38
2023-02-01T08:23:43.240Z,99206.47
2023-02-01T08:26:18.555Z,99202.78
2023-02-01T08:28:52.344Z,99192.94
2023-02-01T08:31:21.074Z,99209.97
2023-02-01T08:33:53.494Z,99212.19
2023-02-01T08:36:21.207Z,99201.50
2023-02-01T08:38:48.084Z,99211.53
2023-02-01T08:41:20.425Z,99215.59
2023-02-01T08:43:47.209Z,99223.44
2023-02-01T08:46:13.691Z,99224.47
2023-02-01T08:48:40.393Z,99220.75
2023-02-01T08:51:12.665Z,99234.75
2023-02-01T08:53:42.224Z,99221.06
2023-02-01T08:56:10.454Z,99234.03
2023-02-01T08:58:36.834Z,99231.69
2023-02-01T09:01:16.118Z,99223.09
2023-02-01T09:03:42.681Z,99240.31
2023-02-01T09:06:14.352Z,99227.69
2023-02-01T09:08:41.582Z,99236.25
2023-02-01T09:11:12.307Z,99237.56
2023-02-01T09:13:39.019Z,99246.66
2023-02-01T09:16:05.830Z,99241.25
2023-02-01T09:18:32.245Z,99245.03
2023-02-01T09:20:58.808Z,99250.09
2023-02-01T09:23:25.405Z,99260.03
2023-02-01T09:25:52.467Z,99255.94
2023-02-01T09:28:19.626Z,99259.03
2023-02-01T09:30:46.352Z,99260.34
2023-02-01T09:33:12.908Z,99253.41
2023-02-01T09:35:39.526Z,99259.53
2023-02-01T09:38:06.334Z,99251.34
2023-02-01T09:40:35.648Z,99248.41
2023-02-01T09:43:39.729Z,99251.91
2023-02-01T09:46:31.764Z,99269.38
2023-02-01T09:49:03.224Z,99265.03
2023-02-01T09:51:39.096Z,99263.97
2023-02-01T09:54:13.904Z,99267.22
2023-02-01T09:56:50.522Z,99271.63
2023-02-01T09:59:35.035Z,99264.72
2023-02-01T10:02:04.185Z,99272.28
2023-02-01T10:04:30.825Z,99287.16
2023-02-01T10:07:14.707Z,99272.38
2023-02-01T10:10:18.412Z,99276.69
2023-02-01T10:13:08.670Z,99274.56
2023-02-01T10:16:02.331Z,99286.72
2023-02-01T10:18:40.681Z,99292.44
2023-02-01T10:21:48.489Z,99299.53
2023-02-01T10:24:58.104Z,99300.34
2023-02-01T10:27:33.884Z,99297.97
2023-02-01T10:30:11.176Z,99295.94
2023-02-01T10:32:37.633Z,99287.44
2023-02-01T10:35:15.800Z,99286.09
2023-02-01T10:37:43.370Z,99288.25
2023-02-01T10:40:18.091Z,99308.91
2023-02-01T10:42:45.384Z,99290.00
2023-02-01T10:45:17.464Z,99298.28
2023-02-01T10:47:44.322Z,99299.91
2023-02-01T10:50:40.076Z,99291.03
2023-02-01T10:53:11.861Z,99297.22
2023-02-01T10:55:50.382Z,99293.50
2023-02-01T10:58:32.870Z,99288.91
2023-02-01T11:01:04.178Z,99285.16
2023-02-01T11:03:41.737Z,99284.09
2023-02-01T11:06:19.121Z,99279.28
2023-02-01T11:08:54.426Z,99288.41
2023-02-01T11:11:21.387Z,99282.78
2023-02-01T11:13:59.751Z,99277.16
2023-02-01T11:16:38.013Z,99276.09
2023-02-01T11:19:05.226Z,99271.53
2023-02-01T11:21:33.153Z,99278.19
2023-02-01T11:24:05.485Z,99267.44
2023-02-01T11:26:33.892Z,99277.38
2023-02-01T11:29:05.444Z,99267.69
2023-02-01T11:31:34.862Z,99266.88
2023-02-01T11:34:17.134Z,99257.72
2023-02-01T11:36:46.963Z,99251.78
2023-02-01T11:39:13.281Z,99242.06
2023-02-01T11:42:04.363Z,99245.59
2023-02-01T11:44:42.355Z,99226.97
2023-02-01T11:47:26.175Z,99229.16
2023-02-01T11:49:58.417Z,99229.16
2023-02-01T11:52:44.882Z,99229.72
2023-02-01T11:55:27.272Z,99228.34
2023-02-01T11:58:04.087Z,99223.78
2023-02-01T12:01:07.523Z,99205.47
2023-02-01T12:04:00.672Z,99209.84
2023-02-01T12:06:51.640Z,99205.81
2023-02-01T12:09:41.268Z,99204.50
2023-02-01T12:12:34.591Z,99193.69
2023-02-01T12:15:20.575Z,99204.66
2023-02-01T12:18:14.820Z,99206.81
2023-02-01T12:21:03.138Z,99197.38
2023-02-01T12:23:51.116Z,99213.19
2023-02-01T12:26:32.578Z,99216.13
2023-02-01T12:29:19.185Z,99209.13
2023-02-01T12:31:54.884Z,99214.50
2023-02-01T12:34:51.683Z,99209.69
2023-02-01T12:37:51.995Z,99213.19
2023-02-01T12:40:27.112Z,99215.06
2023-02-01T12:43:10.749Z,99219.34
2023-02-01T12:45:44.020Z,99210.13
2023-02-01T12:48:37.985Z,99219.25
2023-02-01T12:51:29.187Z,99223.50
2023-02-01T12:54:10.588Z,99231.56
2023-02-01T12:56:43.580Z,99228.31
2023-02-01T12:59:21.623Z,99226.09
2023-02-01T13:02:03.290Z,99215.84
2023-02-01T13:04:35.361Z,99210.97
2023-02-01T13:07:17.972Z,99221.75
2023-02-01T13:10:00.945Z,99209.31
2023-02-01T13:12:37.058Z,99209.81
2023-02-01T13:15:17.801Z,99207.88
2023-02-01T13:17:47.287Z,99211.06
2023-02-01T13:20:30.832Z,99213.41
2023-02-01T13:23:05.390Z,99204.28
2023-02-01T13:25:44.836Z,99202.97
2023-02-01T13:28:24.645Z,99189.84
2023-02-01T13:31:13.218Z,99197.91
2023-02-01T13:34:10.290Z,99196.28
2023-02-01T13:36:58.456Z,99194.66
2023-02-01T13:40:10.852Z,99189.28
2023-02-01T13:42:55.004Z,99189.34
2023-02-01T13:45:32.599Z,99186.66
2023-02-01T13:48:03.114Z,99179.16
2023-02-01T13:50:39.781Z,99179.97
2023-02-01T13:53:12.316Z,99181.38
2023-02-01T13:55:45.648Z,99171.16
2023-02-01T13:58:41.589Z,99174.97
2023-02-01T14:01:23.286Z,99195.13
2023-02-01T14:03:51.886Z,99181.38
2023-02-01T14:06:28.562Z,99179.41
2023-02-01T14:09:12.429Z,99173.22
2023-02-01T14:11:45.217Z,99167.06
2023-02-01T14:14:17.702Z,99172.78
2023-02-01T14:16:45.720Z,99162.81
2023-02-01T14:19:30.188Z,99162.53
2023-02-01T14:22:07.653Z,99160.56
2023-02-01T14:24:37.001Z,99163.50
2023-02-01T14:27:31.785Z,99164.56
2023-02-01T14:30:00.731Z,99172.66
2023-02-01T14:32:40.093Z,99173.47
2023-02-01T14:35:18.376Z,99179.66
2023-02-01T14:37:45.687Z,99181.28
2023-02-01T14:40:15.155Z,99189.66
2023-02-01T14:42:47.401Z,99175.47
2023-02-01T14:45:20.010Z,99180.94
2023-02-01T14:47:50.457Z,99191.44
2023-02-01T14:50:31.712Z,99194.94
2023-02-01T14:53:13.628Z,99196.00
2023-02-01T14:55:59.817Z,99204.09
2023-02-01T14:58:35.571Z,99213.22
2023-02-01T15:01:15.949Z,99211.59
2023-02-01T15:04:08.376Z,99197.91
2023-02-01T15:06:38.569Z,99190.31
2023-02-01T15:09:12.322Z,99192.69
2023-02-01T15:11:58.910Z,99192.34
2023-02-01T15:14:27.165Z,99188.28
2023-02-01T15:16:56.495Z,99199.06
2023-02-01T15:19:28.371Z,99199.06
2023-02-01T15:21:57.588Z,99198.25
2023-02-01T15:24:36.422Z,99190.44
2023-02-01T15:27:05.586Z,99200.69
2023-02-01T15:29:34.163Z,99196.91
2023-02-01T15:32:01.116Z,99202.81
2023-02-01T15:34:49.513Z,99211.94
2023-02-01T15:37:17.414Z,99208.75
2023-02-01T15:40:08.609Z,99213.06
2023-02-01T15:42:35.789Z,99205.25
2023-02-01T15:45:02.907Z,99204.44
2023-02-01T15:47:32.709Z,99202.81
2023-02-01T15:50:01.596Z,99210.31
2023-02-01T15:52:40.223Z,99210.31
2023-02-01T15:55:18.639Z,99210.88
2023-02-01T15:57:45.408Z,99213.06
2023-02-01T16:00:41.185Z,99214.69
2023-02-01T16:03:34.128Z,99224.34
2023-02-01T16:06:02.425Z,99218.16
2023-02-01T16:08:30.872Z,99219.22
2023-02-01T16:11:15.354Z,99213.03
2023-02-01T16:13:42.178Z,99203.28
2023-02-01T16:16:14.763Z,99230.19
2023-02-01T16:18:42.363Z,99214.38
2023-02-01T16:21:09.530Z,99221.16
2023-02-01T16:23:36.982Z,99214.69
2023-02-01T16:26:04.717Z,99214.13
2023-02-01T16:28:31.198Z,99216.00
2023-02-01T16:30:57.908Z,99225.97
2023-02-01T16:33:25.098Z,99224.34
2023-02-01T16:35:52.444Z,99226.47
2023-02-01T16:38:23.106Z,99226.94
2023-02-01T16:40:50.727Z,99219.44
2023-02-01T16:43:19.929Z,99228.09
2023-02-01T16:45:51.109Z,99224.34
2023-02-01T16:48:23.713Z,99220.59
2023-02-01T16:50:59.496Z,99215.22
2023-02-01T16:53:28.568Z,99226.53
2023-02-01T16:55:55.468Z,99220.09
2023-02-01T16:58:22.093Z,99215.22
2023-02-01T17:00:49.200Z,99234.31
2023-02-01T17:03:18.576Z,99227.28
2023-02-01T17:05:48.450Z,99228.09
2023-02-01T17:08:20.167Z,99230.19
2023-02-01T17:10:47.021Z,99227.50
2023-02-01T17:13:15.641Z,99233.97
2023-02-01T17:15:56.039Z,99226.69
2023-02-01T17:18:22.705Z,99228.31
2023-02-01T17:20:52.073Z,99227.50
2023-02-01T17:23:20.609Z,99232.41
2023-02-01T17:25:48.438Z,99235.66
2023-02-01T17:28:14.952Z,99218.47
2023-02-01T17:30:42.131Z,99229.22
2023-02-01T17:33:22.591Z,99228.97
2023-02-01T17:35:49.571Z,99234.13
2023-02-01T17:38:16.003Z,99242.50
2023-02-01T17:40:43.383Z,99226.63
2023-02-01T17:43:19.965Z,99228.25
2023-02-01T17:45:52.496Z,99225.81
2023-02-01T17:48:20.884Z,99230.84
2023-02-01T17:50:50.133Z,99227.13
2023-02-01T17:53:16.933Z,99221.41
2023-02-01T17:55:45.614Z,99228.75
2023-02-01T17:58:14.108Z,99225.47
2023-02-01T18:00:42.085Z,99215.22
2023-02-01T18:03:22.732Z,99222.22
2023-02-01T18:05:51.857Z,99212.50
2023-02-01T18:08:18.586Z,99217.34
2023-02-01T18:10:45.102Z,99227.28
2023-02-01T18:13:12.554Z,99235.09
2023-02-01T18:15:39.800Z,99228.66
2023-02-01T18:18:07.485Z,99233.47
2023-02-01T18:20:36.124Z,99244.72
2023-02-01T18:23:02.965Z,99252.06
2023-02-01T18:25:34.133Z,99251.25
2023-02-01T18:28:00.589Z,99256.09
2023-02-01T18:30:30.903Z,99258.78
2023-02-01T18:32:57.538Z,99248.00
2023-02-01T18:35:26.869Z,99242.63
2023-02-01T18:37:55.037Z,99238.28
2023-02-01T18:40:33.622Z,99231.03
2023-02-01T18:43:00.711Z,99232.34
2023-02-01T18:45:29.730Z,99233.41
2023-02-01T18:47:57.669Z,99232.34
2023-02-01T18:50:24.398Z,99234.78
2023-02-01T18:52:58.099Z,99237.25
2023-02-01T18:55:26.342Z,99217.34
2023-02-01T18:57:53.222Z,99229.38
2023-02-01T19:00:21.340Z,99230.19
2023-02-01T19:02:48.734Z,99242.63
2023-02-01T19:05:15.907Z,99235.38
2023-02-01T19:07:43.078Z,99228.09
2023-02-01T19:10:13.848Z,99226.78
2023-02-01T19:12:40.575Z,99209.81
2023-02-01T19:15:12.730Z,99201.19
2023-02-01T19:17:40.538Z,99195.22
2023-02-01T19:20:10.334Z,99181.75
2023-02-01T19:22:37.421Z,99181.75
2023-02-01T19:25:04.151Z,99200.03
2023-02-01T19:27:30.577Z,99188.22
2023-02-01T19:29:56.978Z,99186.34
2023-02-01T19:32:23.418Z,99190.66
2023-02-01T19:34:49.936Z,99169.38
2023-02-01T19:37:16.405Z,99188.22
2023-02-01T19:39:42.979Z,99190.66
2023-02-01T19:42:09.647Z,99190.44
2023-02-01T19:44:36.242Z,99195.00
2023-02-01T19:47:02.667Z,99196.88
2023-02-01T19:49:29.187Z,99202.25
2023-02-01T19:51:55.699Z,99206.31
2023-02-01T19:54:22.102Z,99213.59
2023-02-01T19:56:51.567Z,99213.03
2023-02-01T19:59:19.084Z,99211.94
2023-02-01T20:01:46.641Z,99221.66
2023-02-01T20:04:14.699Z,99228.66
2023-02-01T20:06:48.772Z,99231.59
2023-02-01T20:09:20.709Z,99241.63
2023-02-01T20:11:48.532Z,99251.91
2023-02-01T20:14:15.249Z,99239.50
2023-02-01T20:16:42.559Z,99234.69
2023-02-01T20:19:10.732Z,99240.63
2023-02-01T20:21:38.671Z,99235.75
2023-02-01T20:24:05.963Z,99242.44
2023-02-01T20:26:34.610Z,99247.00
2023-02-01T20:29:02.324Z,99230.38
2023-02-01T20:31:29.879Z,99241.13
2023-02-01T20:34:01.194Z,99231.19
2023-02-01T20:36:28.997Z,99243.84
2023-02-01T20:38:57.107Z,99244.38
2023-02-01T20:41:24.897Z,99246.00
2023-02-01T20:43:51.510Z,99246.00
2023-02-01T20:46:18.256Z,99242.25
2023-02-01T20:48:46.732Z,99251.41
2023-02-01T20:51:14.852Z,99260.53
2023-02-01T20:53:42.315Z,99256.78
2023-02-01T20:56:12.760Z,99253.88
2023-02-01T20:58:39.756Z,99258.41
2023-02-01T21:01:06.532Z,99260.38
2023-02-01T21:03:34.996Z,99259.06
2023-02-01T21:06:02.595Z,99262.59
2023-02-01T21:08:30.070Z,99259.06
2023-02-01T21:11:02.481Z,99264.22
2023-02-01T21:13:31.373Z,99258.56
2023-02-01T21:15:58.330Z,99249.44
2023-02-01T21:18:25.086Z,99245.38
2023-02-01T21:20:51.891Z,99240.47
2023-02-01T21:23:18.651Z,99246.66
2023-02-01T21:25:45.295Z,99239.41
2023-02-01T21:28:12.299Z,99244.56
2023-02-01T21:30:38.924Z,99243.22
2023-02-01T21:33:06.285Z,99241.09
2023-02-01T21:35:32.698Z,99244.38
2023-02-01T21:37:59.157Z,99238.19
2023-02-01T21:40:25.632Z,99239.22
2023-02-01T21:42:52.122Z,99244.59
2023-02-01T21:45:18.928Z,99248.13
2023-02-01T21:47:45.343Z,99240.03
2023-02-01T21:50:20.174Z,99237.34
2023-02-01T21:52:46.614Z,99244.38
2023-02-01T21:55:14.005Z,99235.50
2023-02-01T21:57:41.005Z,99234.09
2023-02-01T22:00:13.368Z,99227.91
2023-02-01T22:02:39.963Z,99231.16
2023-02-01T22:05:07.027Z,99238.19
2023-02-01T22:07:36.119Z,99233.28
2023-02-01T22:10:03.726Z,99230.34
2023-02-01T22:12:30.119Z,99236.53
2023-02-01T22:14:56.708Z,99228.44
2023-02-01T22:17:23.100Z,99226.34
2023-02-01T22:19:49.634Z,99212.88
2023-02-01T22:22:16.768Z,99222.59
2023-02-01T22:24:43.184Z,99224.47
2023-02-01T22:27:14.036Z,99234.44
2023-02-01T22:29:42.050Z,99234.97
2023-02-01T22:32:08.825Z,99236.88
2023-02-01T22:34:35.289Z,99237.69
2023-02-01T22:37:01.697Z,99239.81
2023-02-01T22:39:28.122Z,99219.09
2023-02-01T22:41:54.564Z,99218.19
2023-02-01T22:44:21.074Z,99237.28
2023-02-01T22:46:47.587Z,99229.69
2023-02-01T22:49:14.023Z,99234.25
2023-02-01T22:51:40.550Z,99231.00
2023-02-01T22:54:07.567Z,99225.63
2023-02-01T22:56:36.311Z,99236.66
2023-02-01T22:59:06.038Z,99231.00
2023-02-01T23:01:33.670Z,99236.88
2023-02-01T23:04:02.391Z,99236.56
2023-02-01T23:06:30.085Z,99227.13
2023-02-01T23:08:58.072Z,99237.88
2023-02-01T23:11:25.654Z,99233.78
2023-02-01T23:13:52.631Z,99235.66
2023-02-01T23:16:19.378Z,99238.63
2023-02-01T23:18:45.853Z,99235.38
2023-02-01T23:21:19.788Z,99238.88
2023-02-01T23:23:48.070Z,99230.19
2023-02-01T23:26:15.025Z,99227.50
2023-02-01T23:28:41.945Z,99226.69
2023-02-01T23:31:10.152Z,99226.94
2023-02-01T23:33:37.759Z,99228.03
2023-02-01T23:36:06.495Z,99234.47
2023-02-01T23:38:33.677Z,99224.25
2023-02-01T23:41:06.126Z,99217.81
2023-02-01T23:43:51.352Z,99225.88
2023-02-01T23:46:18.365Z,99228.28
2023-02-01T23:48:46.857Z,99221.56
2023-02-01T23:51:13.228Z,99232.91
2023-02-01T23:53:39.767Z,99228.09
2023-02-01T23:56:07.260Z,99224.91
2023-02-01T23:58:34.220Z,99219.28
